Main page
METAR-TAF:

METAR-TAF

Airports :

Beirut Air Base

Beirut, Lebanon

latitude: 33-49N, longitude: 035-29E, elevation: 29 m

Current weather observation

The report was made 42 minutes ago, at 11:00 UTC
Wind 17 kt from the Southwest
Temperature 31°C
Humidity 71%
Pressure 1006 hPa
Visibility: 5000 m
Scattered clouds at a height of 2700 ft
mist

METAR: OLBA 231100Z 23017KT 5000 BR SCT027 31/25 Q1006 NOSIG

Time: 14:42 (11:42 UTC)

Forecast

The report was made 1 hour and 42 minutes ago, at 10:00 UTC
Forecast valid from 23 at 12 UTC to 24 at 18 UTC
Wind 20 kt from the Southwest
Visibility: 7000 m
Broken clouds at a height of 3000 ft
Temporary
from 23 at 12 UTC to 23 at 18 UTC
Visibility: 4000 m
mist
Becoming
from 23 at 22 UTC to 23 at 24 UTC
Wind 6 kt from the South
Visibility: 8000 m
Few clouds at a height of 3000 ft
Becoming
from 24 at 06 UTC to 24 at 08 UTC
Wind 18 kt from the West/Southwest

TAF: OLBA 231000Z 2312/2418 23020KT 7000 BKN030 TEMPO 2312/2318 4000 BR BECMG 2322/2324 17006KT 8000 FEW030 BECMG 2406/2408 24018KT

Weather observations and forecasts of more than 4000 airports (METAR and TAF reports).

The available stations are represented by yellow and red dots on the map.

Hover mouse over dot to see the name of the station.

Then click to see weather observations and forecasts.

To change the map : click on the green buttons with a black cross to zoom in, on the green button with a dash to zoom out, or on the green arrows for adjacent maps.


METAR-TAF: